Time;durP1;ratioP1;P1;durP2;ratioP2;P2;SDS_P1;SDS_P2;PMS_P1;PMS_P2;Temp;Humidity;BMP_temperature;BMP_pressure;BME280_temperature;BME280_humidity;BME280_pressure;Samples;Min_cycle;Max_cycle;Signal;HPM_P1;HPM_P2
2023/10/20 00:04:24;;;;;;;2.28;0.90;;;;;;;0.50;93.34;101252.34;10452859;28;20444;-69
2023/10/20 00:09:26;;;;;;;2.83;0.60;;;;;;;0.43;94.02;101250.66;10479906;22;20431;-71
2023/10/20 00:14:28;;;;;;;2.60;0.40;;;;;;;0.53;93.58;101275.44;10515398;28;20040;-70
2023/10/20 00:19:31;;;;;;;0.85;0.52;;;;;;;0.38;94.79;101274.75;10504344;28;20040;-71
2023/10/20 00:24:34;;;;;;;0.98;0.30;;;;;;;0.25;96.11;101267.38;10520701;28;20040;-70
2023/10/20 00:29:37;;;;;;;1.38;0.63;;;;;;;0.11;95.90;101255.66;10524246;28;20419;-70
2023/10/20 00:34:39;;;;;;;0.98;0.20;;;;;;;0.11;95.93;101255.66;10501938;28;20412;-70
2023/10/20 00:39:43;;;;;;;0.98;0.40;;;;;;;0.15;95.66;101256.94;10522967;28;20543;-70
2023/10/20 00:44:45;;;;;;;1.40;0.30;;;;;;;0.22;94.67;101255.13;10506564;28;20447;-70
2023/10/20 00:49:47;;;;;;;2.67;0.55;;;;;;;0.30;93.60;101254.94;10519035;28;20036;-70
2023/10/20 00:54:50;;;;;;;1.85;0.63;;;;;;;0.35;93.66;101264.31;10527664;28;20043;-70
2023/10/20 00:59:52;;;;;;;0.25;0.13;;;;;;;0.39;94.79;101268.31;10488382;28;20052;-70
2023/10/20 01:04:54;;;;;;;2.00;0.28;;;;;;;0.26;95.49;101264.47;10485614;28;20419;-70
2023/10/20 01:10:00;;;;;;;1.60;0.40;;;;;;;0.23;96.78;101293.75;10506274;22;20059;-63
2023/10/20 01:15:06;;;;;;;1.92;0.55;;;;;;;0.14;96.16;101268.75;10490030;28;20044;-63
2023/10/20 01:20:09;;;;;;;0.63;0.40;;;;;;;0.26;94.49;101256.38;10525971;28;20052;-63
2023/10/20 01:25:11;;;;;;;2.17;0.85;;;;;;;0.30;93.52;101279.25;10512896;22;20423;-70
2023/10/20 01:30:13;;;;;;;1.27;0.68;;;;;;;0.32;94.89;101280.91;10515033;28;20380;-70
2023/10/20 01:35:15;;;;;;;1.05;0.38;;;;;;;0.08;96.85;101284.91;10520200;28;20048;-70
2023/10/20 01:40:19;;;;;;;0.50;0.50;;;;;;;-0.03;97.59;101283.56;10513479;28;20051;-70
2023/10/20 01:45:23;;;;;;;0.68;0.40;;;;;;;0.00;98.17;101304.78;10524781;28;20526;-70
2023/10/20 01:50:26;;;;;;;1.00;0.50;;;;;;;0.00;98.86;101288.59;10525645;28;20123;-70
2023/10/20 01:55:29;;;;;;;1.30;0.30;;;;;;;0.01;98.96;101266.00;10546904;22;20048;-67
2023/10/20 02:00:32;;;;;;;2.03;0.30;;;;;;;0.09;98.33;101281.19;10530057;28;20044;-67
2023/10/20 02:05:34;;;;;;;1.95;0.40;;;;;;;0.19;97.96;101297.88;10475660;28;20040;-67
2023/10/20 02:10:36;;;;;;;0.63;0.30;;;;;;;0.07;98.67;101300.28;10509311;22;20426;-69
2023/10/20 02:15:39;;;;;;;1.65;0.47;;;;;;;0.04;99.91;101297.97;10532631;28;20051;-69
2023/10/20 02:20:41;;;;;;;0.88;0.30;;;;;;;0.11;100.00;101290.75;10561687;28;20036;-69
2023/10/20 02:25:44;;;;;;;1.55;0.40;;;;;;;0.04;100.00;101286.34;10541672;22;20061;-70
2023/10/20 02:30:46;;;;;;;2.45;0.35;;;;;;;0.21;100.00;101290.41;10427956;28;20041;-71
2023/10/20 02:35:48;;;;;;;2.35;0.40;;;;;;;0.13;99.77;101279.75;10443023;28;20536;-70
2023/10/20 02:40:52;;;;;;;1.95;0.57;;;;;;;0.15;100.00;101281.22;10478199;22;20089;-66
2023/10/20 02:45:55;;;;;;;3.30;0.40;;;;;;;0.23;100.00;101291.88;10500521;28;20044;-69
2023/10/20 02:50:58;;;;;;;2.55;0.50;;;;;;;0.26;100.00;101293.34;10541918;22;20423;-95
2023/10/20 02:56:02;;;;;;;1.25;0.45;;;;;;;0.26;100.00;101283.38;10488529;28;20052;-93
2023/10/20 03:01:07;;;;;;;2.08;0.50;;;;;;;0.18;99.93;101288.09;10509413;22;20052;-87
2023/10/20 03:06:11;;;;;;;1.70;0.38;;;;;;;0.20;100.00;101294.13;10471056;28;20041;-87
2023/10/20 03:11:15;;;;;;;2.78;0.52;;;;;;;0.29;99.94;101299.16;10514042;28;20078;-87
2023/10/20 03:16:22;;;;;;;3.10;0.60;;;;;;;0.30;99.63;101300.84;10522350;28;20503;-87
2023/10/20 03:21:25;;;;;;;1.38;0.50;;;;;;;0.37;99.40;101305.47;10489536;28;20380;-87
2023/10/20 03:26:31;;;;;;;1.85;0.50;;;;;;;0.38;98.99;101296.34;10508907;28;20474;-86
2023/10/20 03:31:34;;;;;;;1.88;0.57;;;;;;;0.35;97.55;101296.72;10520944;28;20524;-87
2023/10/20 03:36:36;;;;;;;2.08;0.50;;;;;;;0.36;97.04;101287.59;10488348;28;20055;-87
2023/10/20 03:41:41;;;;;;;0.82;0.32;;;;;;;0.37;95.96;101284.69;10513856;28;20047;-87
2023/10/20 03:46:49;;;;;;;2.72;0.65;;;;;;;0.36;96.92;101299.22;10504783;28;20395;-87
2023/10/20 03:51:53;;;;;;;3.83;0.60;;;;;;;0.35;95.87;101302.97;10501398;28;20131;-88
2023/10/20 03:56:58;;;;;;;0.68;0.45;;;;;;;0.38;96.06;101307.13;10459891;28;20126;-88
2023/10/20 04:02:04;;;;;;;1.15;0.45;;;;;;;0.46;95.61;101312.34;10519611;28;20045;-87
2023/10/20 04:07:07;;;;;;;1.85;0.60;;;;;;;0.29;96.02;101317.22;10495309;28;20036;-87
2023/10/20 04:12:09;;;;;;;1.23;0.40;;;;;;;0.14;97.21;101303.84;10527734;28;20036;-87
2023/10/20 04:17:12;;;;;;;3.75;0.70;;;;;;;0.12;97.51;101321.25;10511329;28;20045;-87
2023/10/20 04:22:16;;;;;;;2.92;0.52;;;;;;;0.09;98.28;101321.66;10494468;28;20491;-88
2023/10/20 04:27:39;;;;;;;1.63;0.55;;;;;;;0.10;97.95;101326.03;10539363;28;20037;-87
2023/10/20 04:44:29;;;;;;;8.77;1.00;;;;;;;0.30;95.87;101344.03;10513926;28;20037;-87
2023/10/20 05:00:36;;;;;;;4.40;0.90;;;;;;;0.60;95.14;101354.63;10505971;28;20390;-87
2023/10/20 05:06:12;;;;;;;0.73;0.60;;;;;;;0.62;94.21;101352.56;10543043;28;20141;-86
2023/10/20 05:10:44;;;;;;;1.02;0.60;;;;;;;0.69;93.97;101353.41;10528033;28;20051;-87
2023/10/20 05:15:47;;;;;;;2.10;0.65;;;;;;;0.74;93.17;101367.19;10528500;28;20051;-87
2023/10/20 05:20:50;;;;;;;2.80;0.45;;;;;;;0.74;93.05;101371.75;10545735;28;20044;-87
2023/10/20 05:25:52;;;;;;;1.15;0.43;;;;;;;0.93;92.42;101387.25;10527396;28;20036;-87
2023/10/20 05:30:54;;;;;;;3.55;0.60;;;;;;;1.16;90.26;101386.94;10492423;28;20044;-87
2023/10/20 05:36:03;;;;;;;1.92;0.75;;;;;;;1.12;90.17;101369.44;10493988;28;20222;-87
2023/10/20 05:41:05;;;;;;;2.55;0.70;;;;;;;1.58;89.41;101377.75;10493730;28;20525;-87
2023/10/20 05:46:17;;;;;;;2.15;0.70;;;;;;;1.62;88.40;101367.34;10545891;28;20051;-87
2023/10/20 05:51:21;;;;;;;1.98;0.90;;;;;;;1.39;88.30;101378.47;10510719;28;20474;-87
2023/10/20 05:56:24;;;;;;;2.20;0.60;;;;;;;0.99;89.79;101382.88;10510751;28;20419;-87
2023/10/20 06:01:27;;;;;;;2.03;0.77;;;;;;;0.63;92.12;101385.78;10488022;28;20053;-87
2023/10/20 06:06:31;;;;;;;2.50;0.60;;;;;;;0.42;92.96;101378.59;10559719;28;20051;-86
2023/10/20 06:11:36;;;;;;;1.90;0.40;;;;;;;0.35;94.84;101392.06;10569589;28;20064;-86
2023/10/20 06:16:38;;;;;;;2.88;0.88;;;;;;;0.39;94.94;101395.19;10547358;28;20036;-87
2023/10/20 06:21:42;;;;;;;2.00;0.85;;;;;;;0.47;94.83;101420.16;10533413;28;20044;-86
2023/10/20 06:26:45;;;;;;;2.70;1.05;;;;;;;0.44;95.31;101417.84;10524366;28;20044;-86
2023/10/20 06:37:08;;;;;;;3.35;0.65;;;;;;;1.62;91.88;101406.03;10537612;28;20549;-87
2023/10/20 06:42:10;;;;;;;2.03;0.80;;;;;;;1.02;90.32;101412.22;10543803;28;20051;-87
2023/10/20 06:47:13;;;;;;;1.10;0.60;;;;;;;1.07;90.23;101415.19;10526075;28;20414;-87
2023/10/20 06:52:17;;;;;;;2.05;0.57;;;;;;;1.32;89.32;101429.84;10529772;28;20050;-87
2023/10/20 06:57:20;;;;;;;2.10;0.98;;;;;;;2.27;89.17;101417.22;10568188;28;20036;-87
2023/10/20 07:02:22;;;;;;;1.50;0.80;;;;;;;3.41;83.56;101417.63;10529559;28;20040;-86
2023/10/20 07:07:24;;;;;;;3.55;1.00;;;;;;;4.22;76.62;101406.09;10556480;28;20047;-87
2023/10/20 07:12:28;;;;;;;3.65;0.43;;;;;;;2.17;83.05;101428.44;10535443;28;20040;-87
2023/10/20 07:17:30;;;;;;;2.45;0.80;;;;;;;1.70;86.25;101437.47;10535715;28;20437;-88
2023/10/20 07:22:32;;;;;;;1.92;0.73;;;;;;;1.55;88.19;101455.72;10531293;28;20032;-87
2023/10/20 07:27:37;;;;;;;1.92;0.70;;;;;;;0.55;90.25;101497.50;10527815;28;20044;-88
2023/10/20 07:32:41;;;;;;;1.58;0.60;;;;;;;0.27;93.16;101443.47;10525849;28;20507;-87
2023/10/20 07:37:45;;;;;;;4.20;0.80;;;;;;;0.34;94.20;101448.91;10495580;28;20043;-88
2023/10/20 07:42:48;;;;;;;1.95;0.45;;;;;;;2.29;86.55;101442.19;10517265;28;20051;-87
2023/10/20 07:47:51;;;;;;;2.42;0.70;;;;;;;1.39;87.06;101454.19;10504967;28;20040;-90
2023/10/20 07:52:54;;;;;;;2.83;0.68;;;;;;;1.00;88.26;101447.53;10498099;28;20044;-90
2023/10/20 07:57:56;;;;;;;2.80;0.70;;;;;;;0.94;89.58;101448.34;10513202;28;20039;-94
2023/10/20 08:02:59;;;;;;;2.80;0.70;;;;;;;1.07;89.60;101447.59;10498236;28;20422;-89
2023/10/20 08:08:02;;;;;;;1.80;0.75;;;;;;;1.35;87.48;101453.78;10547481;28;20047;-88
2023/10/20 08:13:04;;;;;;;3.90;1.10;;;;;;;1.68;88.48;101461.19;10523468;28;20047;-93
2023/10/20 08:18:07;;;;;;;1.48;0.80;;;;;;;2.70;83.79;101442.81;10508602;28;20036;-91
2023/10/20 08:23:11;;;;;;;3.00;0.88;;;;;;;2.69;81.82;101449.28;10518814;28;20044;-92
2023/10/20 08:28:14;;;;;;;0.68;0.68;;;;;;;1.67;87.27;101454.13;10569239;28;20044;-95
2023/10/20 08:33:18;;;;;;;2.05;0.80;;;;;;;1.39;89.14;101465.00;10578069;28;20028;-92
2023/10/20 08:38:21;;;;;;;3.75;1.20;;;;;;;1.16;90.24;101462.63;10485932;28;20091;-91
2023/10/20 08:43:25;;;;;;;2.45;1.00;;;;;;;1.18;91.20;101465.94;10526878;28;20493;-93
2023/10/20 08:48:28;;;;;;;4.55;1.10;;;;;;;1.35;90.20;101477.28;10522973;28;20513;-93
2023/10/20 08:53:36;;;;;;;5.13;1.20;;;;;;;1.48;89.82;101459.25;10506975;28;20060;-93
2023/10/20 08:58:39;;;;;;;1.95;0.75;;;;;;;1.50;87.88;101449.06;10538160;28;20044;-94
2023/10/20 09:03:55;;;;;;;4.10;1.00;;;;;;;1.59;86.11;101475.94;10478958;28;20055;-92
2023/10/20 09:08:59;;;;;;;3.15;0.93;;;;;;;1.80;83.45;101440.63;10521423;28;20043;-91
2023/10/20 09:14:02;;;;;;;3.33;0.95;;;;;;;1.83;81.23;101480.81;10509209;28;20048;-90
2023/10/20 09:19:05;;;;;;;1.70;0.95;;;;;;;1.89;79.33;101450.22;10538766;28;20045;-91
2023/10/20 09:24:09;;;;;;;2.33;0.60;;;;;;;1.91;79.88;101469.84;10509719;28;20518;-90
2023/10/20 09:29:13;;;;;;;2.80;0.80;;;;;;;2.05;80.21;101467.97;10479029;28;20047;-87
2023/10/20 09:48:55;;;;;;;3.35;0.77;;;;;;;2.28;76.34;101457.63;10516247;28;20044;-93
2023/10/20 09:53:59;;;;;;;2.70;0.70;;;;;;;2.42;75.20;101463.84;10532184;28;20548;-93
2023/10/20 09:59:09;;;;;;;4.35;0.68;;;;;;;2.36;72.45;101451.16;10502682;28;20131;-92
2023/10/20 10:04:11;;;;;;;2.63;0.60;;;;;;;2.24;71.30;101450.91;10526438;28;20053;-95
2023/10/20 10:09:18;;;;;;;1.77;0.70;;;;;;;2.20;71.84;101441.56;10535265;28;20131;-93
2023/10/20 10:14:25;;;;;;;0.43;0.40;;;;;;;2.25;71.53;101449.03;10519775;28;20039;-92
2023/10/20 10:19:30;;;;;;;1.95;0.40;;;;;;;2.30;71.07;101436.56;10521363;28;20130;-90
2023/10/20 10:24:36;;;;;;;1.08;0.60;;;;;;;2.19;71.37;101441.75;10509353;28;20043;-92
2023/10/20 10:30:05;;;;;;;1.50;0.45;;;;;;;2.28;71.33;101452.19;10510868;28;20050;-92
2023/10/20 10:35:08;;;;;;;2.63;0.80;;;;;;;2.24;70.76;101461.75;10494189;28;20036;-91
2023/10/20 10:40:15;;;;;;;1.77;0.50;;;;;;;2.40;70.75;101446.97;10465906;28;20044;-87
2023/10/20 10:45:40;;;;;;;0.55;0.40;;;;;;;2.60;71.67;101442.44;10523681;28;20035;-94
2023/10/20 10:50:43;;;;;;;1.70;0.60;;;;;;;2.40;75.68;101441.56;10539965;28;20123;-90
2023/10/20 10:55:46;;;;;;;1.55;0.70;;;;;;;2.30;75.02;101454.69;10505285;28;20047;-93
2023/10/20 11:00:48;;;;;;;0.93;0.68;;;;;;;1.97;75.99;101444.63;10510222;28;20044;-91
2023/10/20 11:05:50;;;;;;;2.58;0.77;;;;;;;1.63;78.47;101461.81;10505769;28;20048;-91
2023/10/20 11:10:52;;;;;;;2.22;0.45;;;;;;;1.42;79.95;101451.94;10545607;28;20055;-92
2023/10/20 11:15:54;;;;;;;2.45;0.85;;;;;;;1.61;80.04;101427.88;10549719;28;20048;-90
2023/10/20 11:20:57;;;;;;;1.48;0.50;;;;;;;1.80;77.61;101440.63;10521964;28;20043;-90
2023/10/20 11:25:59;;;;;;;1.50;0.70;;;;;;;2.13;75.93;101424.47;10525170;28;20103;-91
2023/10/20 11:31:01;;;;;;;2.83;1.05;;;;;;;2.45;74.22;101424.72;10508831;28;20131;-91
2023/10/20 11:36:04;;;;;;;0.98;0.55;;;;;;;2.50;69.22;101439.28;10517520;28;20040;-88
2023/10/20 11:41:07;;;;;;;0.38;0.38;;;;;;;2.42;63.36;101442.19;10533186;28;20041;-91
2023/10/20 11:46:11;;;;;;;1.08;0.40;;;;;;;2.24;62.46;101447.38;10530483;28;20063;-91
2023/10/20 11:51:13;;;;;;;0.70;0.60;;;;;;;2.08;63.56;101457.59;10529601;28;20036;-94
2023/10/20 11:56:16;;;;;;;1.55;0.50;;;;;;;2.00;63.77;101441.53;10516221;28;20044;-93
2023/10/20 12:01:22;;;;;;;1.13;0.50;;;;;;;2.00;63.77;101463.19;10537536;28;20041;-93
2023/10/20 12:06:24;;;;;;;4.53;0.20;;;;;;;2.04;63.35;101456.31;10504753;28;20118;-89
2023/10/20 12:11:26;;;;;;;2.08;0.60;;;;;;;2.00;63.61;101455.06;10503851;28;20419;-91
2023/10/20 12:16:29;;;;;;;1.63;0.70;;;;;;;1.99;62.97;101466.94;10525689;28;20033;-93
2023/10/20 12:21:31;;;;;;;0.50;0.40;;;;;;;1.97;63.53;101455.47;10482602;28;20037;-93
2023/10/20 12:26:34;;;;;;;1.73;0.50;;;;;;;2.05;64.10;101457.97;10477509;28;20627;-89
2023/10/20 12:31:36;;;;;;;0.80;0.50;;;;;;;1.94;64.57;101460.47;10478266;28;20406;-89
2023/10/20 12:36:39;;;;;;;2.35;0.63;;;;;;;1.84;65.47;101468.97;10507154;28;20041;-93
2023/10/20 12:41:41;;;;;;;0.30;0.30;;;;;;;1.85;66.45;101450.84;10507610;28;20041;-89
2023/10/20 12:46:44;;;;;;;1.27;0.65;;;;;;;1.94;65.32;101466.72;10476724;28;20040;-87
2023/10/20 12:51:46;;;;;;;1.45;0.60;;;;;;;1.94;65.73;101455.88;10526199;28;20047;-85
2023/10/20 12:56:48;;;;;;;2.80;0.50;;;;;;;2.06;65.11;101459.63;10517163;28;20067;-89
2023/10/20 13:01:50;;;;;;;2.50;0.63;;;;;;;2.13;64.53;101461.53;10538023;28;20056;-85
2023/10/20 13:06:53;;;;;;;2.92;0.50;;;;;;;2.07;64.55;101455.06;10541066;28;20143;-87
2023/10/20 13:11:59;;;;;;;0.93;0.60;;;;;;;2.09;64.19;101455.72;10532309;28;20044;-92
2023/10/20 13:17:04;;;;;;;2.42;0.75;;;;;;;2.20;64.95;101448.84;10491412;28;20040;-86
2023/10/20 13:22:07;;;;;;;2.38;0.90;;;;;;;2.16;63.51;101458.41;10512964;28;20047;-88
2023/10/20 13:27:10;;;;;;;0.63;0.40;;;;;;;2.13;64.04;101450.72;10508834;28;20041;-92
2023/10/20 13:32:12;;;;;;;2.15;1.00;;;;;;;2.18;64.25;101464.47;10485826;28;20407;-87
2023/10/20 13:37:14;;;;;;;1.48;0.65;;;;;;;2.19;65.75;101464.25;10495204;28;20055;-88
2023/10/20 13:42:17;;;;;;;1.90;0.52;;;;;;;2.25;65.21;101465.28;10520387;28;20042;-88
2023/10/20 13:47:25;;;;;;;4.50;0.75;;;;;;;2.10;66.05;101477.16;10515791;28;20040;-85
2023/10/20 13:52:31;;;;;;;3.47;0.88;;;;;;;2.03;66.71;101470.88;10541523;28;20045;-95
2023/10/20 13:57:33;;;;;;;2.60;0.98;;;;;;;2.08;68.75;101473.81;10519776;28;20333;-87
2023/10/20 14:02:35;;;;;;;1.33;0.70;;;;;;;2.04;69.71;101477.97;10523895;28;20052;-90
2023/10/20 14:07:37;;;;;;;3.38;0.70;;;;;;;1.99;70.64;101485.03;10480519;28;20040;-89
2023/10/20 14:12:40;;;;;;;3.10;0.77;;;;;;;1.91;72.97;101491.47;10517126;28;20037;-88
2023/10/20 14:17:42;;;;;;;2.35;0.80;;;;;;;1.42;76.92;101479.00;10545532;28;20125;-90
2023/10/20 14:22:47;;;;;;;3.30;0.90;;;;;;;1.38;77.69;101498.50;10527412;28;20136;-89
2023/10/20 14:27:49;;;;;;;1.77;0.85;;;;;;;1.42;77.36;101505.19;10482775;28;20439;-88
2023/10/20 14:32:52;;;;;;;3.80;0.80;;;;;;;1.40;76.75;101497.28;10519340;28;20364;-89
2023/10/20 14:37:58;;;;;;;2.58;0.73;;;;;;;1.43;74.37;101504.16;10471058;28;20048;-89
2023/10/20 14:43:01;;;;;;;2.25;0.90;;;;;;;1.41;75.58;101498.13;10503050;28;20067;-89
2023/10/20 14:48:04;;;;;;;2.30;1.00;;;;;;;1.48;76.33;101499.81;10522502;28;20051;-90
2023/10/20 14:53:07;;;;;;;1.42;0.70;;;;;;;1.38;75.88;101520.13;10530016;28;20032;-91
2023/10/20 14:58:12;;;;;;;1.98;1.00;;;;;;;1.50;77.45;101510.44;10511832;28;20044;-88
2023/10/20 15:03:21;;;;;;;1.73;0.90;;;;;;;1.47;77.06;101513.53;10495327;28;20049;-91
2023/10/20 15:08:24;;;;;;;1.92;0.90;;;;;;;1.43;77.84;101515.81;10508289;28;20089;-92
2023/10/20 15:13:26;;;;;;;2.75;1.02;;;;;;;1.57;77.91;101524.84;10515790;28;20067;-92
2023/10/20 15:18:29;;;;;;;5.05;1.63;;;;;;;1.74;77.93;101514.53;10477567;28;20031;-89
2023/10/20 15:23:32;;;;;;;2.38;0.95;;;;;;;1.65;78.22;101504.91;10488815;28;20707;-92
2023/10/20 15:28:38;;;;;;;3.08;1.63;;;;;;;1.69;78.43;101516.97;10488330;28;20035;-91
2023/10/20 15:33:41;;;;;;;4.55;1.45;;;;;;;1.56;79.44;101516.91;10516237;28;20035;-91
2023/10/20 15:38:48;;;;;;;5.72;1.60;;;;;;;1.65;79.79;101518.41;10504603;28;20086;-90
2023/10/20 15:43:51;;;;;;;4.35;1.60;;;;;;;1.66;78.99;101522.78;10516951;28;20037;-90
2023/10/20 15:48:55;;;;;;;3.22;1.70;;;;;;;1.61;79.01;101536.09;10519546;28;20041;-91
2023/10/20 15:53:58;;;;;;;2.30;1.13;;;;;;;1.52;77.49;101538.94;10485486;28;20044;-89
2023/10/20 15:59:04;;;;;;;1.15;1.05;;;;;;;1.61;76.57;101544.22;10481986;28;20041;-88
2023/10/20 16:04:31;;;;;;;3.35;1.50;;;;;;;1.57;76.28;101545.66;10502823;28;20052;-95
2023/10/20 16:09:43;;;;;;;3.83;1.45;;;;;;;1.62;76.12;101559.41;10497008;28;20071;-92
2023/10/20 16:21:43;;;;;;;2.58;1.35;;;;;;;1.64;73.67;101551.91;10519391;22;20510;-71
2023/10/20 16:26:47;;;;;;;4.03;1.40;;;;;;;1.63;73.23;101558.38;10512269;28;20464;-70
2023/10/20 16:31:51;;;;;;;2.05;0.98;;;;;;;1.57;72.44;101557.31;10497574;28;20451;-69
2023/10/20 16:36:53;;;;;;;2.75;1.30;;;;;;;1.61;71.85;101546.91;10572643;22;20050;-75
2023/10/20 16:41:56;;;;;;;3.95;1.40;;;;;;;1.61;71.58;101557.72;10558759;28;20044;-76
2023/10/20 16:47:00;;;;;;;5.43;1.58;;;;;;;1.71;71.08;101553.59;10565892;28;20058;-76
2023/10/20 16:52:02;;;;;;;3.88;1.63;;;;;;;1.75;69.85;101559.47;10540353;22;20056;-68
2023/10/20 16:57:05;;;;;;;3.85;1.70;;;;;;;1.77;69.66;101554.69;10523409;28;20037;-69
2023/10/20 17:02:08;;;;;;;5.35;1.30;;;;;;;1.75;67.75;101579.25;10516444;28;20039;-69
2023/10/20 17:07:11;;;;;;;1.00;0.88;;;;;;;1.80;67.96;101567.81;10522878;28;20040;-69
2023/10/20 17:12:18;;;;;;;1.65;1.15;;;;;;;1.84;68.20;101573.66;10523675;28;20036;-66
2023/10/20 17:17:22;;;;;;;2.35;1.30;;;;;;;1.76;68.38;101583.63;10527022;28;20475;-66
2023/10/20 17:22:24;;;;;;;3.92;1.05;;;;;;;1.78;68.16;101589.66;10524808;28;20499;-67
2023/10/20 17:27:27;;;;;;;0.80;0.80;;;;;;;1.82;68.02;101592.81;10517440;22;20044;-65
2023/10/20 17:32:29;;;;;;;1.60;0.90;;;;;;;1.88;68.62;101599.28;10512960;28;20098;-63
2023/10/20 17:37:32;;;;;;;4.90;2.33;;;;;;;1.80;68.82;101603.00;10512334;28;20043;-64
2023/10/20 17:42:35;;;;;;;1.48;0.88;;;;;;;1.79;68.21;101599.47;10537393;22;21507;-70
2023/10/20 17:47:38;;;;;;;3.58;1.00;;;;;;;1.80;68.30;101592.19;10534137;28;20037;-72
2023/10/20 17:52:41;;;;;;;2.80;1.13;;;;;;;1.85;67.74;101596.97;10517309;28;20051;-71
2023/10/20 17:57:45;;;;;;;1.23;0.88;;;;;;;1.86;67.64;101595.94;10560354;22;20075;-77
2023/10/20 18:02:49;;;;;;;3.20;1.10;;;;;;;1.77;68.07;101595.28;10570666;28;20040;-77
2023/10/20 18:07:52;;;;;;;1.83;0.98;;;;;;;1.69;66.11;101606.25;10570685;28;20040;-75
2023/10/20 18:12:56;;;;;;;5.10;1.15;;;;;;;1.67;66.84;101611.03;10559523;22;20054;-92
2023/10/20 18:17:59;;;;;;;1.88;0.88;;;;;;;1.57;66.65;101611.41;10494913;28;20139;-93
2023/10/20 18:23:31;;;;;;;2.35;1.02;;;;;;;1.54;67.22;101617.19;10477518;28;20104;-91
2023/10/20 18:28:46;;;;;;;2.10;0.80;;;;;;;1.45;66.62;101623.78;10529336;28;20021;-95
2023/10/20 18:33:56;;;;;;;2.47;0.70;;;;;;;1.36;67.02;101635.78;10538687;28;20083;-93
2023/10/20 18:38:59;;;;;;;2.60;0.90;;;;;;;1.29;67.01;101615.97;10463197;28;20278;-93
2023/10/20 18:44:02;;;;;;;4.70;0.88;;;;;;;1.27;67.03;101624.28;10480677;28;20496;-93
2023/10/20 18:49:08;;;;;;;1.20;0.80;;;;;;;1.16;67.11;101628.34;10455193;28;20047;-96
2023/10/20 18:54:15;;;;;;;2.08;0.82;;;;;;;1.10;67.06;101648.06;10460427;28;20059;-94
2023/10/20 18:59:21;;;;;;;4.10;0.90;;;;;;;1.02;67.69;101636.53;10454671;28;20041;-95
2023/10/20 19:04:24;;;;;;;2.10;0.63;;;;;;;0.95;67.95;101633.78;10396471;28;20048;-90
2023/10/20 19:09:33;;;;;;;0.68;0.65;;;;;;;0.94;67.74;101633.97;10406007;28;20527;-90
2023/10/20 19:14:36;;;;;;;1.02;0.73;;;;;;;0.92;68.19;101658.47;10430703;28;20075;-93
2023/10/20 19:19:39;;;;;;;2.95;0.68;;;;;;;0.85;68.14;101638.66;10443476;28;20052;-95
2023/10/20 19:24:53;;;;;;;1.63;0.60;;;;;;;0.83;68.50;101652.34;10415866;28;21410;-93
2023/10/20 19:29:56;;;;;;;2.10;1.02;;;;;;;0.80;68.34;101658.16;10422129;28;20044;-92
2023/10/20 19:35:05;;;;;;;1.27;0.70;;;;;;;0.74;67.55;101658.09;10395783;28;20045;-94
2023/10/20 19:40:10;;;;;;;2.72;0.90;;;;;;;0.74;67.63;101658.94;10392024;28;20116;-93
2023/10/20 19:45:15;;;;;;;1.77;0.75;;;;;;;0.75;67.33;101654.34;10420361;28;20048;-91
2023/10/20 19:50:18;;;;;;;2.45;0.50;;;;;;;0.66;66.72;101650.91;10449545;28;20259;-94
2023/10/20 19:55:20;;;;;;;2.05;1.00;;;;;;;0.70;67.07;101679.25;10419072;28;20585;-93
2023/10/20 20:00:23;;;;;;;1.17;0.60;;;;;;;0.67;66.41;101660.69;10400435;28;20518;-90
2023/10/20 20:05:30;;;;;;;3.50;0.60;;;;;;;0.71;65.77;101663.88;10414977;28;20052;-91
2023/10/20 20:10:32;;;;;;;1.13;0.60;;;;;;;0.67;66.46;101663.41;10405679;28;20068;-92
2023/10/20 20:15:35;;;;;;;0.60;0.40;;;;;;;0.69;66.60;101658.63;10408888;28;20578;-90
2023/10/20 20:20:38;;;;;;;2.70;0.65;;;;;;;0.79;65.95;101661.88;10439236;28;20045;-91
2023/10/20 20:25:44;;;;;;;1.13;0.60;;;;;;;0.74;65.44;101675.13;10390181;28;20046;-89
2023/10/20 20:30:47;;;;;;;1.08;0.43;;;;;;;0.75;65.27;101660.59;10422725;28;20413;-90
2023/10/20 20:35:55;;;;;;;1.48;0.73;;;;;;;0.77;65.55;101660.41;10453544;28;20053;-88
2023/10/20 20:40:58;;;;;;;0.63;0.47;;;;;;;0.80;65.00;101678.94;10417455;28;20053;-94
2023/10/20 20:46:02;;;;;;;1.92;0.52;;;;;;;0.70;65.84;101681.94;10416361;28;20122;-95
2023/10/20 20:51:09;;;;;;;1.35;0.80;;;;;;;0.70;65.84;101713.53;10390078;28;20052;-89
2023/10/20 20:56:11;;;;;;;1.67;0.80;;;;;;;0.67;64.83;101679.59;10438632;28;20496;-90
2023/10/20 21:01:14;;;;;;;3.92;1.50;;;;;;;0.71;65.25;101691.72;10399791;28;20045;-93
2023/10/20 21:06:16;;;;;;;3.13;1.30;;;;;;;0.71;65.22;101683.63;10414057;28;20049;-95
2023/10/20 21:11:19;;;;;;;2.47;1.23;;;;;;;0.68;65.12;101697.47;10391962;28;20041;-94
2023/10/20 21:16:25;;;;;;;1.40;0.85;;;;;;;0.65;64.80;101680.81;10361479;28;20084;-91
2023/10/20 21:21:48;;;;;;;1.85;1.20;;;;;;;0.67;64.75;101679.59;10397516;28;20427;-92
2023/10/20 21:26:54;;;;;;;3.90;0.70;;;;;;;0.61;65.02;101683.09;10394396;28;20033;-92
2023/10/20 21:31:57;;;;;;;1.95;0.55;;;;;;;0.58;64.76;101689.69;10387995;28;20041;-96
2023/10/20 21:36:59;;;;;;;1.83;0.40;;;;;;;0.59;64.87;101691.38;10383994;28;20076;-93
2023/10/20 21:42:04;;;;;;;0.60;0.40;;;;;;;0.58;64.67;101692.41;10417697;28;20033;-93
2023/10/20 21:47:07;;;;;;;0.45;0.43;;;;;;;0.54;65.34;101690.28;10392661;28;20076;-95
2023/10/20 21:52:09;;;;;;;2.50;0.80;;;;;;;0.57;65.35;101711.50;10378522;28;20526;-94
2023/10/20 21:57:11;;;;;;;0.73;0.40;;;;;;;0.56;65.38;101715.22;10393017;28;20045;-93
2023/10/20 22:02:15;;;;;;;1.48;0.60;;;;;;;0.52;65.21;101722.88;10399565;28;20511;-91
2023/10/20 22:07:18;;;;;;;2.97;0.38;;;;;;;0.53;65.10;101726.41;10404869;28;20088;-96
2023/10/20 22:12:21;;;;;;;2.67;0.40;;;;;;;0.49;64.82;101728.63;10435947;28;20416;-95
2023/10/20 22:17:24;;;;;;;1.17;0.30;;;;;;;0.55;65.23;101740.56;10399231;28;20071;-94
2023/10/20 22:22:30;;;;;;;0.73;0.47;;;;;;;0.53;64.94;101750.72;10429474;28;20021;-93
2023/10/20 22:27:32;;;;;;;4.97;0.52;;;;;;;0.52;65.47;101743.63;10434823;28;20096;-94
2023/10/20 22:32:37;;;;;;;1.50;0.55;;;;;;;0.66;65.17;101742.75;10456608;28;20037;-95
2023/10/20 22:37:40;;;;;;;2.70;0.70;;;;;;;0.58;65.85;101750.97;10432404;28;20033;-93
2023/10/20 22:42:42;;;;;;;2.03;0.50;;;;;;;0.52;66.01;101739.09;10393488;28;20033;-94
2023/10/20 22:47:45;;;;;;;0.88;0.40;;;;;;;0.54;65.48;101741.59;10429109;28;20176;-94
2023/10/20 22:52:49;;;;;;;0.77;0.50;;;;;;;0.47;65.40;101743.34;10429963;28;20045;-93
2023/10/20 22:57:52;;;;;;;0.93;0.30;;;;;;;0.38;66.08;101736.38;10398311;28;20527;-94
2023/10/20 23:02:54;;;;;;;1.38;0.47;;;;;;;0.43;66.19;101742.06;10382597;28;20057;-93
2023/10/20 23:07:57;;;;;;;1.98;0.50;;;;;;;0.32;65.81;101751.44;10376700;28;20492;-93
2023/10/20 23:12:59;;;;;;;0.60;0.30;;;;;;;0.38;65.91;101763.38;10432901;28;20283;-94
2023/10/20 23:18:01;;;;;;;0.70;0.30;;;;;;;0.42;66.38;101753.88;10414258;28;20049;-93
2023/10/20 23:23:04;;;;;;;0.88;0.60;;;;;;;0.39;66.08;101759.66;10455595;28;20038;-93
2023/10/20 23:28:06;;;;;;;1.52;0.40;;;;;;;0.35;65.92;101766.44;10425807;28;20049;-92
2023/10/20 23:33:09;;;;;;;1.58;0.40;;;;;;;0.37;66.14;101772.50;10467116;28;20101;-92
2023/10/20 23:38:11;;;;;;;1.80;0.65;;;;;;;0.37;66.51;101764.41;10458436;28;20052;-92
2023/10/20 23:43:13;;;;;;;1.73;0.50;;;;;;;0.38;66.24;101768.78;10405443;28;20053;-93
2023/10/20 23:48:16;;;;;;;1.17;0.60;;;;;;;0.35;66.27;101767.31;10399105;28;20060;-94
2023/10/20 23:53:18;;;;;;;3.30;0.60;;;;;;;0.39;66.07;101763.19;10391636;28;20547;-93
2023/10/20 23:58:20;;;;;;;0.68;0.40;;;;;;;0.36;66.35;101768.13;10377931;28;20041;-94
